createdAt,value
2023-02-06T00:01:32.202Z,388.65
2023-02-06T00:04:00.793Z,335.13
2023-02-06T00:06:29.397Z,354.40
2023-02-06T00:08:58.102Z,546.15
2023-02-06T00:11:28.230Z,585.03
2023-02-06T00:13:56.687Z,382.58
2023-02-06T00:16:27.209Z,443.73
2023-02-06T00:18:57.100Z,424.17
2023-02-06T00:21:26.245Z,390.35
2023-02-06T00:23:56.617Z,448.50
2023-02-06T00:26:25.483Z,452.95
2023-02-06T00:28:55.438Z,452.73
2023-02-06T00:31:24.031Z,461.52
2023-02-06T00:33:52.533Z,469.70
2023-02-06T00:36:20.895Z,544.13
2023-02-06T00:38:49.530Z,480.17
2023-02-06T00:41:18.146Z,600.13
2023-02-06T00:43:46.779Z,398.15
2023-02-06T00:46:18.360Z,415.42
2023-02-06T00:48:47.017Z,418.10
2023-02-06T00:51:15.493Z,324.98
2023-02-06T00:53:44.169Z,377.08
2023-02-06T00:56:12.609Z,421.70
2023-02-06T00:58:41.180Z,448.13
2023-02-06T01:01:09.926Z,392.35
2023-02-06T01:03:39.921Z,455.30
2023-02-06T01:06:08.537Z,516.03
2023-02-06T01:08:36.957Z,401.08
2023-02-06T01:11:11.616Z,485.77
2023-02-06T01:16:10.357Z,423.50
2023-02-06T01:18:40.219Z,436.42
2023-02-06T01:21:10.422Z,438.23
2023-02-06T01:23:39.396Z,521.60
2023-02-06T01:26:08.539Z,392.15
2023-02-06T01:28:37.892Z,539.80
2023-02-06T01:31:12.314Z,482.05
2023-02-06T01:33:42.681Z,580.88
2023-02-06T01:36:11.576Z,487.50
2023-02-06T01:38:40.307Z,450.48
2023-02-06T01:41:09.010Z,580.65
2023-02-06T01:43:38.655Z,436.17
2023-02-06T01:46:08.437Z,400.27
2023-02-06T01:48:38.925Z,452.33
2023-02-06T01:51:11.881Z,454.05
2023-02-06T01:53:40.903Z,420.95
2023-02-06T01:56:09.999Z,611.80
2023-02-06T01:58:41.249Z,654.90
2023-02-06T02:01:09.939Z,637.35
2023-02-06T02:03:41.005Z,485.15
2023-02-06T02:06:13.800Z,359.73
2023-02-06T02:08:44.100Z,416.90
2023-02-06T02:11:16.116Z,450.42
2023-02-06T02:13:44.737Z,420.77
2023-02-06T02:16:19.365Z,399.05
2023-02-06T02:21:55.882Z,434.45
2023-02-06T02:24:31.908Z,518.35
2023-02-06T02:27:37.488Z,401.45
2023-02-06T02:30:34.522Z,379.75
2023-02-06T02:33:46.384Z,434.92
2023-02-06T02:36:19.886Z,401.17
2023-02-06T02:38:55.276Z,352.48
2023-02-06T02:41:27.510Z,565.28
2023-02-06T02:43:59.401Z,424.42
2023-02-06T02:46:32.658Z,350.17
2023-02-06T02:49:05.648Z,394.70
2023-02-06T02:51:35.842Z,467.33
2023-02-06T02:54:04.625Z,378.52
2023-02-06T02:56:34.486Z,466.52
2023-02-06T02:59:06.628Z,396.55
2023-02-06T03:01:38.644Z,425.25
2023-02-06T03:04:10.365Z,520.80
2023-02-06T03:07:09.528Z,385.13
2023-02-06T03:09:47.415Z,474.15
2023-02-06T03:12:21.146Z,504.35
2023-02-06T03:14:53.820Z,496.43
2023-02-06T03:17:31.341Z,440.45
2023-02-06T03:20:00.330Z,413.73
2023-02-06T03:22:30.829Z,483.85
2023-02-06T03:25:00.392Z,542.40
2023-02-06T03:27:29.974Z,415.98
2023-02-06T03:29:59.417Z,429.73
2023-02-06T03:32:29.722Z,543.83
2023-02-06T03:35:02.876Z,500.63
2023-02-06T03:37:33.623Z,378.40
2023-02-06T03:40:03.136Z,482.10
2023-02-06T03:42:32.523Z,592.78
2023-02-06T03:45:09.264Z,423.33
2023-02-06T03:47:39.768Z,435.75
2023-02-06T03:50:09.330Z,415.88
2023-02-06T03:52:40.775Z,403.20
2023-02-06T03:55:12.363Z,395.88
2023-02-06T03:57:41.796Z,422.75
2023-02-06T04:00:11.886Z,399.67
2023-02-06T04:02:41.015Z,383.42
2023-02-06T04:05:09.857Z,472.52
2023-02-06T04:07:40.010Z,567.88
2023-02-06T04:10:08.736Z,507.27
2023-02-06T04:12:37.385Z,397.35
2023-02-06T04:15:06.668Z,468.10
2023-02-06T04:17:49.732Z,460.10
2023-02-06T04:20:23.556Z,478.35
2023-02-06T04:22:53.494Z,600.72
2023-02-06T04:25:22.045Z,437.50
2023-02-06T04:27:50.909Z,468.52
2023-02-06T04:30:19.828Z,390.30
2023-02-06T04:32:48.253Z,485.00
2023-02-06T04:35:16.716Z,485.52
2023-02-06T04:37:45.110Z,473.35
2023-02-06T04:40:15.363Z,505.98
2023-02-06T04:42:43.768Z,504.08
2023-02-06T04:45:14.599Z,458.55
2023-02-06T04:47:43.031Z,474.67
2023-02-06T04:50:11.695Z,409.70
2023-02-06T04:52:40.132Z,458.90
2023-02-06T04:55:09.359Z,349.60
2023-02-06T04:57:39.500Z,355.40
2023-02-06T05:00:09.378Z,406.27
2023-02-06T05:02:40.138Z,450.42
2023-02-06T05:05:10.039Z,465.40
2023-02-06T05:07:41.844Z,408.15
2023-02-06T05:10:10.686Z,356.13
2023-02-06T05:12:40.729Z,403.40
2023-02-06T05:15:10.019Z,425.90
2023-02-06T05:17:38.658Z,401.38
2023-02-06T05:20:08.213Z,540.22
2023-02-06T05:22:38.414Z,535.67
2023-02-06T05:25:08.985Z,468.10
2023-02-06T05:27:43.141Z,455.30
2023-02-06T05:30:13.183Z,361.80
2023-02-06T05:33:15.461Z,438.58
2023-02-06T05:35:44.087Z,407.65
2023-02-06T05:39:41.443Z,367.65
2023-02-06T05:42:00.376Z,666.50
2023-02-06T05:44:30.342Z,441.17
2023-02-06T05:46:58.945Z,396.23
2023-02-06T05:49:27.487Z,441.45
2023-02-06T05:51:55.933Z,432.40
2023-02-06T05:54:24.576Z,389.25
2023-02-06T05:56:53.167Z,446.75
2023-02-06T05:59:21.761Z,481.45
2023-02-06T06:01:51.629Z,388.13
2023-02-06T06:04:19.965Z,463.00
2023-02-06T06:06:48.318Z,409.02
2023-02-06T06:09:27.851Z,413.55
2023-02-06T06:11:56.391Z,388.45
2023-02-06T06:14:24.918Z,383.98
2023-02-06T06:16:54.602Z,398.48
2023-02-06T06:19:23.086Z,354.02
2023-02-06T06:21:51.540Z,382.27
2023-02-06T06:24:20.008Z,371.60
2023-02-06T06:26:48.509Z,426.10
2023-02-06T06:29:16.971Z,368.20
2023-02-06T06:31:45.608Z,381.85
2023-02-06T06:34:15.584Z,444.27
2023-02-06T06:36:43.974Z,383.45
2023-02-06T06:39:12.700Z,427.45
2023-02-06T06:41:41.110Z,464.88
2023-02-06T06:44:09.738Z,378.83
2023-02-06T06:46:38.265Z,463.85
2023-02-06T06:49:06.684Z,447.98
2023-02-06T06:51:36.400Z,390.40
2023-02-06T06:54:04.919Z,462.10
2023-02-06T06:56:33.267Z,502.60
2023-02-06T06:59:01.669Z,504.38
2023-02-06T07:01:30.108Z,535.58
2023-02-06T07:04:00.317Z,584.63
2023-02-06T07:06:29.211Z,446.85
2023-02-06T07:08:58.893Z,422.60
2023-02-06T07:11:27.254Z,415.23
2023-02-06T07:13:55.606Z,415.35
2023-02-06T07:16:24.639Z,431.08
2023-02-06T07:18:53.039Z,445.85
2023-02-06T07:21:21.405Z,501.13
2023-02-06T07:23:49.707Z,469.80
2023-02-06T07:26:19.550Z,418.60
2023-02-06T07:28:49.695Z,600.72
2023-02-06T07:31:18.103Z,503.85
2023-02-06T07:33:46.573Z,478.92
2023-02-06T07:36:16.112Z,423.92
2023-02-06T07:38:44.632Z,448.20
2023-02-06T07:41:13.240Z,451.88
2023-02-06T07:43:43.065Z,377.92
2023-02-06T07:46:11.636Z,467.48
2023-02-06T07:48:40.058Z,393.08
2023-02-06T07:51:09.946Z,449.33
2023-02-06T07:53:38.953Z,512.13
2023-02-06T07:56:12.797Z,404.38
2023-02-06T07:58:42.685Z,428.98
2023-02-06T08:01:11.724Z,378.75
2023-02-06T08:03:40.334Z,379.13
2023-02-06T08:06:13.112Z,410.20
2023-02-06T08:08:41.766Z,394.27
2023-02-06T08:11:11.670Z,514.53
2023-02-06T08:13:40.401Z,473.60
2023-02-06T08:16:13.427Z,398.95
2023-02-06T08:18:41.931Z,350.95
2023-02-06T08:21:13.565Z,357.33
2023-02-06T08:23:42.280Z,413.13
2023-02-06T08:26:12.692Z,378.48
2023-02-06T08:28:42.384Z,337.98
2023-02-06T08:31:14.072Z,296.02
2023-02-06T08:33:43.079Z,329.40
2023-02-06T08:36:12.396Z,331.42
2023-02-06T08:38:41.445Z,387.08
2023-02-06T08:41:20.138Z,321.02
2023-02-06T08:43:49.212Z,445.00
2023-02-06T08:46:19.965Z,375.80
2023-02-06T08:48:48.795Z,273.13
2023-02-06T08:51:17.235Z,294.90
2023-02-06T08:53:48.250Z,269.38
2023-02-06T08:56:16.743Z,238.25
2023-02-06T08:58:45.150Z,246.98
2023-02-06T09:01:16.550Z,237.68
2023-02-06T09:03:47.263Z,348.35
2023-02-06T09:06:16.652Z,483.02
2023-02-06T09:08:45.075Z,471.20
2023-02-06T09:11:15.684Z,261.23
2023-02-06T09:13:44.803Z,308.77
2023-02-06T09:16:14.010Z,312.05
2023-02-06T09:18:42.623Z,297.40
2023-02-06T09:21:14.162Z,342.23
2023-02-06T09:23:44.474Z,300.55
2023-02-06T09:26:13.441Z,144.07
2023-02-06T09:28:42.054Z,223.23
2023-02-06T09:31:10.895Z,363.52
2023-02-06T09:33:40.654Z,273.38
2023-02-06T09:36:12.440Z,318.23
2023-02-06T09:38:41.983Z,174.80
2023-02-06T09:41:16.559Z,237.82
2023-02-06T09:43:50.694Z,256.40
2023-02-06T09:46:21.311Z,215.10
2023-02-06T09:48:50.882Z,197.30
2023-02-06T09:51:29.387Z,173.50
2023-02-06T09:54:09.116Z,185.63
2023-02-06T09:56:41.160Z,196.40
2023-02-06T09:59:17.617Z,190.07
2023-02-06T10:01:50.098Z,232.98
2023-02-06T10:04:39.669Z,246.27
2023-02-06T10:07:19.911Z,178.70
2023-02-06T10:09:52.930Z,199.63
2023-02-06T10:12:25.715Z,259.27
2023-02-06T10:14:57.152Z,271.98
2023-02-06T10:17:28.402Z,247.90
2023-02-06T10:19:59.371Z,226.90
2023-02-06T10:22:32.726Z,228.65
2023-02-06T10:25:17.169Z,199.50
2023-02-06T10:27:46.537Z,206.02
2023-02-06T10:30:19.082Z,223.13
2023-02-06T10:32:54.052Z,189.68
2023-02-06T10:35:40.708Z,158.65
2023-02-06T10:38:33.580Z,200.70
2023-02-06T10:41:06.992Z,174.32
2023-02-06T10:43:41.924Z,222.35
2023-02-06T10:46:30.220Z,445.73
2023-02-06T10:49:02.754Z,153.63
2023-02-06T10:51:33.418Z,141.30
2023-02-06T10:54:04.617Z,234.18
2023-02-06T10:56:38.170Z,158.02
2023-02-06T10:59:11.905Z,225.75
2023-02-06T11:01:41.955Z,156.17
2023-02-06T11:04:15.073Z,178.15
2023-02-06T11:06:46.785Z,236.07
2023-02-06T11:09:28.254Z,136.05
2023-02-06T11:11:58.426Z,149.43
2023-02-06T11:14:29.902Z,146.40
2023-02-06T11:16:59.660Z,151.73
2023-02-06T11:19:38.566Z,223.05
2023-02-06T11:22:12.130Z,202.38
2023-02-06T11:25:00.992Z,350.27
2023-02-06T11:27:29.938Z,217.43
2023-02-06T11:30:03.277Z,226.48
2023-02-06T11:32:36.417Z,173.30
2023-02-06T11:35:07.294Z,121.53
2023-02-06T11:37:38.049Z,181.27
2023-02-06T11:40:28.756Z,347.13
2023-02-06T11:43:17.466Z,177.20
2023-02-06T11:45:47.359Z,167.52
2023-02-06T11:48:43.969Z,191.00
2023-02-06T11:51:14.487Z,213.48
2023-02-06T11:53:57.704Z,208.27
2023-02-06T11:56:59.778Z,208.75
2023-02-06T11:59:30.107Z,254.38
2023-02-06T12:02:01.538Z,173.45
2023-02-06T12:07:27.909Z,227.55
2023-02-06T12:09:56.455Z,185.85
2023-02-06T12:12:28.365Z,114.38
2023-02-06T12:15:18.291Z,133.70
2023-02-06T12:17:56.036Z,222.40
2023-02-06T12:20:28.257Z,281.75
2023-02-06T12:23:00.202Z,173.23
2023-02-06T12:25:31.273Z,173.60
2023-02-06T12:28:06.817Z,111.40
2023-02-06T12:30:40.489Z,127.57
2023-02-06T12:33:14.351Z,128.83
2023-02-06T12:35:46.277Z,159.88
2023-02-06T12:38:20.183Z,189.90
2023-02-06T12:40:56.086Z,149.75
2023-02-06T12:43:24.785Z,358.15
2023-02-06T12:45:59.878Z,194.23
2023-02-06T12:48:36.355Z,203.55
2023-02-06T12:51:11.293Z,198.73
2023-02-06T12:53:42.463Z,227.13
2023-02-06T12:56:21.042Z,165.40
2023-02-06T12:58:55.028Z,213.18
2023-02-06T13:01:35.705Z,307.58
2023-02-06T13:04:06.062Z,143.30
2023-02-06T13:06:40.953Z,304.38
2023-02-06T13:09:10.268Z,208.38
2023-02-06T13:11:40.611Z,224.52
2023-02-06T13:14:18.863Z,162.10
2023-02-06T13:16:52.728Z,208.10
2023-02-06T13:19:33.018Z,144.23
2023-02-06T13:22:24.696Z,199.98
2023-02-06T13:24:53.195Z,302.08
2023-02-06T13:27:25.810Z,142.13
2023-02-06T13:29:54.783Z,257.42
2023-02-06T13:32:43.174Z,261.65
2023-02-06T13:35:23.668Z,278.88
2023-02-06T13:37:54.765Z,229.50
2023-02-06T13:40:31.069Z,175.43
2023-02-06T13:43:03.085Z,251.57
2023-02-06T13:45:34.960Z,259.42
2023-02-06T13:48:29.601Z,243.70
2023-02-06T13:51:21.715Z,329.17
2023-02-06T13:54:13.621Z,222.70
2023-02-06T13:56:48.980Z,236.20
2023-02-06T13:59:19.406Z,293.27
2023-02-06T14:01:51.909Z,245.48
2023-02-06T14:07:23.176Z,339.52
2023-02-06T14:10:31.133Z,206.45
2023-02-06T14:13:09.680Z,247.02
2023-02-06T14:15:47.560Z,285.70
2023-02-06T14:18:33.000Z,151.25
2023-02-06T14:21:09.277Z,222.20
2023-02-06T14:24:06.380Z,428.15
2023-02-06T14:26:41.920Z,230.18
2023-02-06T14:29:27.295Z,143.48
2023-02-06T14:32:16.860Z,228.23
2023-02-06T14:39:11.972Z,270.05
2023-02-06T14:42:00.517Z,182.25
2023-02-06T14:48:16.562Z,196.85
2023-02-06T14:50:52.365Z,263.90
2023-02-06T14:53:26.982Z,283.42
2023-02-06T14:56:09.115Z,251.45
2023-02-06T14:58:37.881Z,153.52
2023-02-06T15:01:22.197Z,192.32
2023-02-06T15:04:10.088Z,154.95
2023-02-06T15:06:39.721Z,212.80
2023-02-06T15:09:09.294Z,294.13
2023-02-06T15:11:39.772Z,285.55
2023-02-06T15:14:21.662Z,265.80
2023-02-06T15:16:51.510Z,143.10
2023-02-06T15:19:21.992Z,271.63
2023-02-06T15:21:50.941Z,132.88
2023-02-06T15:24:52.667Z,239.40
2023-02-06T15:27:29.158Z,183.27
2023-02-06T15:29:58.310Z,158.55
2023-02-06T15:32:31.639Z,191.05
2023-02-06T15:35:01.012Z,151.05
2023-02-06T15:37:31.661Z,191.75
2023-02-06T15:40:06.416Z,125.63
2023-02-06T15:42:38.904Z,196.30
2023-02-06T15:45:08.674Z,160.10
2023-02-06T15:47:38.088Z,186.38
2023-02-06T15:50:11.778Z,296.95
2023-02-06T15:52:42.864Z,262.17
2023-02-06T15:55:24.844Z,160.27
2023-02-06T15:57:56.487Z,176.77
2023-02-06T16:00:27.113Z,149.27
2023-02-06T16:02:58.611Z,216.40
2023-02-06T16:05:31.284Z,162.73
2023-02-06T16:08:00.181Z,227.43
2023-02-06T16:10:30.261Z,146.82
2023-02-06T16:13:03.267Z,123.45
2023-02-06T16:15:40.332Z,252.90
2023-02-06T16:18:26.848Z,270.30
2023-02-06T16:21:14.780Z,216.85
2023-02-06T16:23:47.677Z,204.07
2023-02-06T16:26:18.986Z,268.58
2023-02-06T16:28:58.583Z,185.15
2023-02-06T16:31:28.007Z,173.07
2023-02-06T16:34:03.022Z,192.82
2023-02-06T16:36:33.583Z,161.70
2023-02-06T16:39:04.352Z,197.20
2023-02-06T16:41:35.328Z,204.40
2023-02-06T16:44:07.673Z,291.75
2023-02-06T16:46:36.600Z,217.93
2023-02-06T16:49:07.306Z,213.48
2023-02-06T16:51:36.262Z,165.25
2023-02-06T16:54:08.286Z,255.10
2023-02-06T16:56:40.552Z,145.23
2023-02-06T16:59:15.551Z,251.48
2023-02-06T17:01:46.676Z,207.93
2023-02-06T17:04:15.596Z,211.07
2023-02-06T17:06:44.549Z,162.43
2023-02-06T17:09:14.549Z,222.88
2023-02-06T17:11:43.315Z,244.77
2023-02-06T17:14:14.747Z,143.40
2023-02-06T17:16:43.375Z,166.20
2023-02-06T17:19:15.090Z,124.00
2023-02-06T17:21:43.708Z,240.23
2023-02-06T17:24:12.314Z,180.00
2023-02-06T17:26:40.901Z,168.27
2023-02-06T17:29:09.749Z,156.07
2023-02-06T17:32:21.572Z,244.80
2023-02-06T17:35:08.687Z,187.30
2023-02-06T17:37:40.428Z,147.18
2023-02-06T17:40:11.263Z,405.85
2023-02-06T17:42:45.920Z,261.90
2023-02-06T17:47:57.016Z,233.95
2023-02-06T17:50:29.657Z,418.42
2023-02-06T17:53:04.763Z,199.18
2023-02-06T17:55:59.263Z,224.20
2023-02-06T17:58:44.993Z,234.00
2023-02-06T18:01:26.516Z,262.67
2023-02-06T18:04:29.104Z,193.68
2023-02-06T18:10:59.002Z,276.15
2023-02-06T18:13:29.062Z,278.90
2023-02-06T18:16:08.130Z,297.35
2023-02-06T18:18:49.561Z,283.42
2023-02-06T18:21:21.431Z,215.90
2023-02-06T18:23:50.357Z,251.93
2023-02-06T18:26:19.079Z,214.13
2023-02-06T18:28:47.807Z,352.98
2023-02-06T18:31:23.792Z,275.73
2023-02-06T18:33:52.511Z,272.35
2023-02-06T18:36:22.962Z,253.75
2023-02-06T18:38:51.903Z,261.17
2023-02-06T18:41:38.488Z,256.42
2023-02-06T18:44:09.522Z,279.63
2023-02-06T18:46:39.013Z,315.80
2023-02-06T18:49:07.936Z,323.25
2023-02-06T18:51:37.872Z,281.40
2023-02-06T18:54:07.770Z,272.52
2023-02-06T18:56:36.518Z,195.65
2023-02-06T18:59:05.335Z,249.88
2023-02-06T19:01:34.589Z,334.88
2023-02-06T19:04:04.002Z,261.98
2023-02-06T19:06:35.745Z,210.32
2023-02-06T19:09:08.115Z,263.48
2023-02-06T19:11:36.916Z,336.75
2023-02-06T19:14:06.703Z,253.00
2023-02-06T19:16:38.583Z,236.90
2023-02-06T19:19:08.847Z,281.73
2023-02-06T19:21:37.631Z,238.35
2023-02-06T19:24:08.675Z,295.65
2023-02-06T19:26:37.335Z,207.02
2023-02-06T19:29:06.116Z,268.73
2023-02-06T19:31:36.317Z,371.42
2023-02-06T19:34:05.048Z,233.48
2023-02-06T19:36:34.048Z,299.52
2023-02-06T19:39:05.030Z,234.85
2023-02-06T19:41:35.579Z,283.52
2023-02-06T19:44:06.957Z,380.77
2023-02-06T19:46:36.108Z,342.33
2023-02-06T19:49:06.679Z,338.25
2023-02-06T19:51:37.268Z,476.70
2023-02-06T19:54:06.576Z,290.00
2023-02-06T19:56:39.552Z,322.35
2023-02-06T19:59:17.888Z,333.45
2023-02-06T20:01:47.634Z,321.80
2023-02-06T20:04:16.833Z,430.45
2023-02-06T20:06:45.823Z,368.05
2023-02-06T20:09:16.077Z,300.05
2023-02-06T20:11:46.726Z,313.77
2023-02-06T20:14:15.455Z,317.00
2023-02-06T20:16:44.882Z,373.25
2023-02-06T20:19:15.620Z,306.77
2023-02-06T20:21:46.272Z,345.80
2023-02-06T20:24:18.549Z,340.73
2023-02-06T20:26:50.018Z,306.83
2023-02-06T20:29:24.994Z,382.60
2023-02-06T20:31:54.447Z,363.95
2023-02-06T20:34:23.819Z,324.83
2023-02-06T20:36:54.757Z,396.50
2023-02-06T20:54:41.165Z,311.85
2023-02-06T20:57:09.978Z,309.15
2023-02-06T21:00:03.993Z,366.92
2023-02-06T21:03:02.373Z,357.67
2023-02-06T21:08:36.258Z,312.30
2023-02-06T21:11:07.218Z,359.00
2023-02-06T21:13:36.208Z,368.27
2023-02-06T21:16:05.338Z,371.00
2023-02-06T21:18:34.254Z,437.50
2023-02-06T21:21:09.467Z,407.05
2023-02-06T21:23:38.703Z,372.10
2023-02-06T21:26:10.445Z,439.40
2023-02-06T21:28:39.998Z,398.95
2023-02-06T21:31:10.653Z,368.35
2023-02-06T21:33:39.442Z,409.33
2023-02-06T21:36:09.289Z,447.73
2023-02-06T21:38:39.045Z,338.48
2023-02-06T21:41:10.729Z,395.35
2023-02-06T21:43:39.315Z,379.10
2023-02-06T21:46:08.306Z,384.58
2023-02-06T21:48:37.240Z,372.65
2023-02-06T21:51:09.465Z,341.33
2023-02-06T21:53:38.318Z,344.05
2023-02-06T21:56:09.914Z,342.35
2023-02-06T21:58:38.895Z,379.75
2023-02-06T22:01:09.028Z,357.38
2023-02-06T22:03:38.118Z,418.08
2023-02-06T22:06:09.175Z,402.08
2023-02-06T22:08:37.810Z,371.30
2023-02-06T22:11:15.119Z,367.48
2023-02-06T22:13:44.394Z,376.30
2023-02-06T22:16:14.783Z,346.60
2023-02-06T22:18:44.125Z,385.95
2023-02-06T22:21:15.272Z,384.65
2023-02-06T22:23:44.551Z,350.17
2023-02-06T22:26:16.573Z,389.70
2023-02-06T22:28:45.733Z,357.10
2023-02-06T22:31:17.843Z,295.65
2023-02-06T22:33:46.345Z,344.70
2023-02-06T22:36:16.369Z,399.30
2023-02-06T22:38:45.700Z,374.92
2023-02-06T22:41:17.537Z,440.23
2023-02-06T22:43:47.289Z,328.98
2023-02-06T22:46:20.584Z,399.80
2023-02-06T22:48:49.321Z,309.30
2023-02-06T22:51:17.894Z,354.92
2023-02-06T22:53:46.908Z,329.08
2023-02-06T22:56:31.310Z,357.80
2023-02-06T22:59:02.683Z,339.67
2023-02-06T23:01:33.157Z,363.42
2023-02-06T23:04:02.742Z,395.77
2023-02-06T23:06:32.540Z,312.42
2023-02-06T23:09:02.677Z,271.08
2023-02-06T23:11:32.835Z,327.85
2023-02-06T23:14:03.334Z,297.45
2023-02-06T23:16:33.349Z,288.10
2023-02-06T23:19:04.408Z,292.50
2023-02-06T23:21:33.954Z,292.58
2023-02-06T23:24:02.593Z,290.85
2023-02-06T23:26:32.512Z,254.25
2023-02-06T23:29:02.308Z,319.40
2023-02-06T23:31:31.029Z,332.38
2023-02-06T23:33:59.620Z,269.38
2023-02-06T23:36:29.314Z,333.35
2023-02-06T23:38:58.091Z,316.70
2023-02-06T23:41:28.274Z,297.27
2023-02-06T23:44:00.602Z,292.60
2023-02-06T23:46:30.716Z,269.25
2023-02-06T23:48:59.579Z,351.95
2023-02-06T23:51:28.469Z,275.90
2023-02-06T23:53:57.095Z,286.05
2023-02-06T23:56:27.955Z,286.17
2023-02-06T23:58:59.083Z,294.77
